createdAt,value
2023-03-17T00:00:54.748Z,95165.00
2023-03-17T00:04:54.725Z,95167.00
2023-03-17T00:08:54.702Z,95154.00
2023-03-17T00:12:54.709Z,95156.00
2023-03-17T00:16:54.767Z,95154.00
2023-03-17T00:20:54.725Z,95134.00
2023-03-17T00:24:54.754Z,95134.00
2023-03-17T00:28:54.790Z,95132.00
2023-03-17T00:32:54.824Z,95134.00
2023-03-17T00:36:54.774Z,95132.00
2023-03-17T00:40:54.791Z,95118.00
2023-03-17T00:44:54.874Z,95122.00
2023-03-17T00:48:54.916Z,95114.00
2023-03-17T00:52:54.941Z,95110.00
2023-03-17T00:56:54.959Z,95116.00
2023-03-17T01:00:55.010Z,95103.00
2023-03-17T01:05:05.491Z,95107.00
2023-03-17T01:08:56.094Z,95107.00
2023-03-17T01:12:54.932Z,95095.00
2023-03-17T01:16:54.898Z,95110.00
2023-03-17T01:20:54.884Z,95107.00
2023-03-17T01:24:54.835Z,95107.00
2023-03-17T01:28:54.896Z,95112.00
2023-03-17T01:32:54.937Z,95107.00
2023-03-17T01:36:54.963Z,95107.00
2023-03-17T01:40:55.051Z,95110.00
2023-03-17T01:44:55.133Z,95101.00
2023-03-17T01:48:55.216Z,95107.00
2023-03-17T01:52:55.273Z,95101.00
2023-03-17T01:56:55.344Z,95097.00
2023-03-17T02:00:55.473Z,95099.00
2023-03-17T02:04:55.531Z,95085.00
2023-03-17T02:08:55.624Z,95081.00
2023-03-17T02:12:55.724Z,95073.00
2023-03-17T02:16:55.884Z,95077.00
2023-03-17T02:20:55.856Z,95075.00
2023-03-17T02:24:55.918Z,95081.00
2023-03-17T02:28:56.103Z,95069.00
2023-03-17T02:32:56.138Z,95081.00
2023-03-17T02:36:56.246Z,95079.00
2023-03-17T02:40:56.288Z,95075.00
2023-03-17T02:44:56.327Z,95063.00
2023-03-17T02:48:56.514Z,95075.00
2023-03-17T02:52:56.528Z,95060.00
2023-03-17T02:56:56.619Z,95071.00
2023-03-17T03:00:56.648Z,95063.00
2023-03-17T03:04:56.714Z,95071.00
2023-03-17T03:08:56.875Z,95067.00
2023-03-17T03:12:56.830Z,95058.00
2023-03-17T03:16:56.848Z,95071.00
2023-03-17T03:20:56.884Z,95063.00
2023-03-17T03:24:56.897Z,95067.00
2023-03-17T03:28:56.942Z,95067.00
2023-03-17T03:32:56.985Z,95079.00
2023-03-17T03:36:56.980Z,95083.00
2023-03-17T03:40:56.989Z,95063.00
2023-03-17T03:44:57.024Z,95069.00
2023-03-17T03:48:57.029Z,95083.00
2023-03-17T03:52:57.089Z,95083.00
2023-03-17T03:56:57.100Z,95067.00
2023-03-17T04:00:57.132Z,95073.00
2023-03-17T04:04:57.180Z,95063.00
2023-03-17T04:08:58.447Z,95058.00
2023-03-17T04:12:57.170Z,95069.00
2023-03-17T04:16:57.136Z,95069.00
2023-03-17T04:20:57.217Z,95061.00
2023-03-17T04:24:57.222Z,95048.00
2023-03-17T04:28:57.205Z,95052.00
2023-03-17T04:32:57.266Z,95044.00
2023-03-17T04:36:57.253Z,95038.00
2023-03-17T04:40:57.258Z,95050.00
2023-03-17T04:44:57.312Z,95042.00
2023-03-17T04:48:57.409Z,95040.00
2023-03-17T04:52:57.347Z,95028.00
2023-03-17T04:56:57.378Z,95036.00
2023-03-17T05:00:57.394Z,95048.00
2023-03-17T05:04:57.454Z,95034.00
2023-03-17T05:08:57.392Z,95030.00
2023-03-17T05:12:57.474Z,95030.00
2023-03-17T05:16:57.594Z,95040.00
2023-03-17T05:20:57.573Z,95040.00
2023-03-17T05:24:57.684Z,95038.00
2023-03-17T05:28:57.843Z,95036.00
2023-03-17T05:32:58.027Z,95034.00
2023-03-17T05:36:58.122Z,95038.00
2023-03-17T05:40:58.303Z,95040.00
2023-03-17T05:44:58.453Z,95038.00
2023-03-17T05:48:58.764Z,95038.00
2023-03-17T05:52:58.808Z,95040.00
2023-03-17T05:56:58.951Z,95038.00
2023-03-17T06:00:59.137Z,95030.00
2023-03-17T06:04:59.300Z,95028.00
2023-03-17T06:08:59.508Z,95030.00
2023-03-17T06:13:00.400Z,95034.00
2023-03-17T06:16:59.823Z,95034.00
2023-03-17T06:21:00.027Z,95030.00
2023-03-17T06:25:00.201Z,95028.00
2023-03-17T06:29:00.411Z,95032.00
2023-03-17T06:33:00.628Z,95026.00
2023-03-17T06:37:00.753Z,95026.00
2023-03-17T06:41:00.999Z,95032.00
2023-03-17T06:45:00.916Z,95024.00
2023-03-17T06:49:01.045Z,95016.00
2023-03-17T06:53:00.889Z,95016.00
2023-03-17T06:57:00.839Z,95020.00
2023-03-17T07:01:00.754Z,95016.00
2023-03-17T07:05:00.833Z,95020.00
2023-03-17T07:09:02.270Z,95018.00
2023-03-17T07:13:00.700Z,95018.00
2023-03-17T07:17:00.659Z,95013.00
2023-03-17T07:21:00.663Z,95020.00
2023-03-17T07:25:00.648Z,95009.00
2023-03-17T07:29:00.585Z,95007.00
2023-03-17T07:33:00.595Z,95013.00
2023-03-17T07:37:00.526Z,95013.00
2023-03-17T07:41:00.484Z,95016.00
2023-03-17T07:45:00.431Z,95013.00
2023-03-17T07:49:00.409Z,95007.00
2023-03-17T07:53:00.368Z,94995.00
2023-03-17T07:57:00.273Z,94991.00
2023-03-17T08:01:00.252Z,94997.00
2023-03-17T08:05:00.440Z,94999.00
2023-03-17T08:09:00.673Z,94979.00
2023-03-17T08:13:00.880Z,94979.00
2023-03-17T08:17:01.164Z,94971.00
2023-03-17T08:21:01.266Z,94969.00
2023-03-17T08:25:01.526Z,94963.00
2023-03-17T08:29:01.710Z,94958.00
2023-03-17T08:33:01.979Z,94952.00
2023-03-17T08:37:02.056Z,94956.00
2023-03-17T08:41:02.269Z,94950.00
2023-03-17T08:45:02.437Z,94930.00
2023-03-17T08:49:02.592Z,94920.00
2023-03-17T08:53:02.785Z,94914.00
2023-03-17T08:57:02.983Z,94916.00
2023-03-17T09:01:03.226Z,94911.00
2023-03-17T09:05:03.400Z,94901.00
2023-03-17T09:09:03.491Z,94899.00
2023-03-17T09:13:03.625Z,94895.00
2023-03-17T09:17:05.916Z,94879.00
2023-03-17T09:21:03.858Z,94867.00
2023-03-17T09:25:03.945Z,94858.00
2023-03-17T09:29:04.788Z,94848.00
2023-03-17T09:33:04.198Z,94844.00
2023-03-17T09:37:04.232Z,94836.00
2023-03-17T09:41:04.281Z,94836.00
2023-03-17T09:45:04.372Z,94832.00
2023-03-17T09:49:04.398Z,94830.00
2023-03-17T09:53:04.401Z,94834.00
2023-03-17T09:57:04.448Z,94836.00
2023-03-17T10:01:04.485Z,94818.00
2023-03-17T10:05:04.503Z,94814.00
2023-03-17T10:09:04.490Z,94809.00
2023-03-17T10:13:04.691Z,94807.00
2023-03-17T10:17:04.492Z,94795.00
2023-03-17T10:21:04.505Z,94795.00
2023-03-17T10:25:04.433Z,94783.00
2023-03-17T10:29:04.430Z,94775.00
2023-03-17T10:33:04.498Z,94775.00
2023-03-17T10:37:04.388Z,94764.00
2023-03-17T10:41:04.408Z,94758.00
2023-03-17T10:45:04.402Z,94756.00
2023-03-17T10:49:04.453Z,94750.00
2023-03-17T10:53:04.517Z,94744.00
2023-03-17T10:57:08.401Z,94726.00
2023-03-17T11:01:04.749Z,94720.00
2023-03-17T11:05:04.598Z,94715.00
2023-03-17T11:09:04.568Z,94713.00
2023-03-17T11:13:04.519Z,94705.00
2023-03-17T11:17:04.491Z,94693.00
2023-03-17T11:21:04.466Z,94685.00
2023-03-17T11:25:04.553Z,94687.00
2023-03-17T11:29:04.545Z,94675.00
2023-03-17T11:33:04.577Z,94671.00
2023-03-17T11:37:04.875Z,94660.00
2023-03-17T11:41:04.409Z,94652.00
2023-03-17T11:45:04.364Z,94644.00
2023-03-17T11:49:04.318Z,94642.00
2023-03-17T11:53:04.287Z,94646.00
2023-03-17T11:57:04.294Z,94617.00
2023-03-17T12:01:04.227Z,94607.00
2023-03-17T12:05:04.183Z,94611.00
2023-03-17T12:09:04.272Z,94605.00
2023-03-17T12:13:04.282Z,94583.00
2023-03-17T12:17:04.477Z,94581.00
2023-03-17T12:21:04.447Z,94601.00
2023-03-17T12:25:04.402Z,94570.00
2023-03-17T12:29:04.346Z,94571.00
2023-03-17T12:33:04.445Z,94575.00
2023-03-17T12:37:04.294Z,94577.00
2023-03-17T12:41:04.264Z,94571.00
2023-03-17T12:45:04.195Z,94564.00
2023-03-17T12:49:04.174Z,94552.00
2023-03-17T12:53:04.104Z,94544.00
2023-03-17T12:57:04.084Z,94540.00
2023-03-17T13:01:04.034Z,94542.00
2023-03-17T13:05:03.991Z,94552.00
2023-03-17T13:09:03.969Z,94511.00
2023-03-17T13:13:03.933Z,94530.00
2023-03-17T13:17:03.913Z,94516.00
2023-03-17T13:21:03.828Z,94509.00
2023-03-17T13:25:03.796Z,94507.00
2023-03-17T13:29:03.765Z,94524.00
2023-03-17T13:33:03.769Z,94505.00
2023-03-17T13:37:11.187Z,94503.00
2023-03-17T13:41:12.537Z,94485.00
2023-03-17T13:45:11.115Z,94475.00
2023-03-17T13:49:03.573Z,94497.00
2023-03-17T13:53:03.559Z,94489.00
2023-03-17T13:57:03.504Z,94495.00
2023-03-17T14:01:03.487Z,94471.00
2023-03-17T14:05:03.457Z,94466.00
2023-03-17T14:09:03.508Z,94468.00
2023-03-17T14:13:03.672Z,94464.00
2023-03-17T14:17:03.862Z,94473.00
2023-03-17T14:21:07.172Z,94462.00
2023-03-17T14:25:03.978Z,94473.00
2023-03-17T14:29:03.927Z,94452.00
2023-03-17T14:33:04.038Z,94460.00
2023-03-17T14:37:03.897Z,94448.00
2023-03-17T14:41:04.013Z,94442.00
2023-03-17T14:45:04.195Z,94450.00
2023-03-17T14:49:04.400Z,94454.00
2023-03-17T14:53:04.502Z,94454.00
2023-03-17T14:57:04.683Z,94450.00
2023-03-17T15:01:04.940Z,94436.00
2023-03-17T15:05:05.067Z,94442.00
2023-03-17T15:09:05.274Z,94434.00
2023-03-17T15:13:05.449Z,94450.00
2023-03-17T15:17:05.632Z,94428.00
2023-03-17T15:22:48.506Z,94432.00
2023-03-17T15:26:48.473Z,94434.00
2023-03-17T15:30:48.853Z,94430.00
2023-03-17T15:34:48.393Z,94436.00
2023-03-17T15:38:48.349Z,94424.00
2023-03-17T15:42:48.315Z,94438.00
2023-03-17T15:46:48.283Z,94438.00
2023-03-17T15:50:48.223Z,94438.00
2023-03-17T15:54:48.176Z,94436.00
2023-03-17T15:58:48.159Z,94446.00
2023-03-17T16:02:48.330Z,94440.00
2023-03-17T16:06:49.264Z,94434.00
2023-03-17T16:10:48.308Z,94440.00
2023-03-17T16:14:48.249Z,94430.00
2023-03-17T16:18:48.209Z,94440.00
2023-03-17T16:22:48.166Z,94442.00
2023-03-17T16:26:48.121Z,94424.00
2023-03-17T16:30:48.278Z,94430.00
2023-03-17T16:34:48.213Z,94450.00
2023-03-17T16:38:48.184Z,94446.00
2023-03-17T16:42:48.160Z,94444.00
2023-03-17T16:46:48.178Z,94464.00
2023-03-17T16:50:48.083Z,94481.00
2023-03-17T16:54:48.062Z,94479.00
2023-03-17T16:58:48.022Z,94468.00
2023-03-17T17:02:49.665Z,94497.00
2023-03-17T17:06:47.944Z,94491.00
2023-03-17T17:10:47.907Z,94501.00
2023-03-17T17:14:47.882Z,94493.00
2023-03-17T17:18:47.828Z,94487.00
2023-03-17T17:22:47.891Z,94505.00
2023-03-17T17:26:47.971Z,94511.00
2023-03-17T17:30:48.001Z,94499.00
2023-03-17T17:34:48.056Z,94507.00
2023-03-17T17:38:48.091Z,94495.00
2023-03-17T17:42:48.092Z,94499.00
2023-03-17T17:46:48.219Z,94511.00
2023-03-17T17:50:48.200Z,94503.00
2023-03-17T17:54:48.206Z,94499.00
2023-03-17T17:58:48.311Z,94516.00
